sensor_id;sensor_type;location;lat;lon;timestamp;pressure;altitude;pressure_sealevel;temperature;humidity
71149;BME280;59072;42.144;25.200;2023-03-15T00:02:04;99284.00;;;4.81;70.33
71149;BME280;59072;42.144;25.200;2023-03-15T00:04:29;99267.06;;;4.49;72.03
71149;BME280;59072;42.144;25.200;2023-03-15T00:06:57;99279.88;;;4.52;72.20
71149;BME280;59072;42.144;25.200;2023-03-15T00:09:22;99255.44;;;4.37;72.71
71149;BME280;59072;42.144;25.200;2023-03-15T00:11:49;99275.03;;;4.62;72.79
71149;BME280;59072;42.144;25.200;2023-03-15T00:14:15;99259.53;;;4.39;72.32
71149;BME280;59072;42.144;25.200;2023-03-15T00:16:40;99269.50;;;4.51;73.17
71149;BME280;59072;42.144;25.200;2023-03-15T00:19:07;99251.88;;;4.58;72.24
71149;BME280;59072;42.144;25.200;2023-03-15T00:21:33;99258.78;;;4.66;71.91
71149;BME280;59072;42.144;25.200;2023-03-15T00:23:59;99257.09;;;4.31;73.47
71149;BME280;59072;42.144;25.200;2023-03-15T00:26:25;99254.19;;;4.19;75.18
71149;BME280;59072;42.144;25.200;2023-03-15T00:28:50;99229.06;;;4.37;73.29
71149;BME280;59072;42.144;25.200;2023-03-15T00:31:17;99241.69;;;4.41;73.77
71149;BME280;59072;42.144;25.200;2023-03-15T00:33:43;99241.41;;;4.23;74.12
71149;BME280;59072;42.144;25.200;2023-03-15T00:36:09;99222.16;;;4.42;73.27
71149;BME280;59072;42.144;25.200;2023-03-15T00:38:38;99223.63;;;4.52;73.14
71149;BME280;59072;42.144;25.200;2023-03-15T00:41:12;99218.53;;;4.57;72.96
71149;BME280;59072;42.144;25.200;2023-03-15T00:43:38;99220.16;;;4.45;73.19
71149;BME280;59072;42.144;25.200;2023-03-15T00:46:04;99207.38;;;4.41;72.94
71149;BME280;59072;42.144;25.200;2023-03-15T00:48:30;99211.13;;;4.12;73.82
71149;BME280;59072;42.144;25.200;2023-03-15T00:53:33;99198.13;;;4.11;72.83
71149;BME280;59072;42.144;25.200;2023-03-15T00:56:07;99204.69;;;4.28;72.36
71149;BME280;59072;42.144;25.200;2023-03-15T00:58:34;99213.00;;;4.25;73.58
71149;BME280;59072;42.144;25.200;2023-03-15T01:01:03;99175.94;;;3.92;73.64
71149;BME280;59072;42.144;25.200;2023-03-15T01:03:28;99184.34;;;4.15;73.54
71149;BME280;59072;42.144;25.200;2023-03-15T01:05:54;99187.34;;;4.06;73.23
71149;BME280;59072;42.144;25.200;2023-03-15T01:08:19;99188.78;;;4.08;74.02
71149;BME280;59072;42.144;25.200;2023-03-15T01:10:45;99186.56;;;4.12;73.32
71149;BME280;59072;42.144;25.200;2023-03-15T01:13:10;99171.69;;;3.97;74.84
71149;BME280;59072;42.144;25.200;2023-03-15T01:15:35;99186.75;;;4.03;75.05
71149;BME280;59072;42.144;25.200;2023-03-15T01:18:01;99179.72;;;3.76;76.29
71149;BME280;59072;42.144;25.200;2023-03-15T01:20:26;99162.53;;;3.87;75.72
71149;BME280;59072;42.144;25.200;2023-03-15T01:22:52;99179.69;;;4.17;75.06
71149;BME280;59072;42.144;25.200;2023-03-15T01:25:17;99178.19;;;3.95;75.75
71149;BME280;59072;42.144;25.200;2023-03-15T01:27:43;99195.06;;;4.00;75.53
71149;BME280;59072;42.144;25.200;2023-03-15T01:30:08;99190.00;;;4.06;75.61
71149;BME280;59072;42.144;25.200;2023-03-15T01:32:34;99191.56;;;3.93;76.21
71149;BME280;59072;42.144;25.200;2023-03-15T01:34:59;99194.41;;;3.92;76.97
71149;BME280;59072;42.144;25.200;2023-03-15T01:37:25;99190.88;;;3.78;76.77
71149;BME280;59072;42.144;25.200;2023-03-15T01:39:50;99178.97;;;3.89;76.39
71149;BME280;59072;42.144;25.200;2023-03-15T01:42:16;99176.91;;;3.84;77.24
71149;BME280;59072;42.144;25.200;2023-03-15T01:44:56;99157.59;;;3.70;76.89
71149;BME280;59072;42.144;25.200;2023-03-15T01:47:24;99186.34;;;4.07;75.78
71149;BME280;59072;42.144;25.200;2023-03-15T01:50:03;99176.41;;;4.09;75.42
71149;BME280;59072;42.144;25.200;2023-03-15T01:52:37;99175.63;;;4.21;74.72
71149;BME280;59072;42.144;25.200;2023-03-15T01:55:07;99159.38;;;4.18;74.84
71149;BME280;59072;42.144;25.200;2023-03-15T01:57:38;99179.50;;;4.32;74.72
71149;BME280;59072;42.144;25.200;2023-03-15T02:00:08;99179.88;;;4.22;74.83
71149;BME280;59072;42.144;25.200;2023-03-15T02:02:39;99195.34;;;4.26;75.45
71149;BME280;59072;42.144;25.200;2023-03-15T02:05:12;99166.34;;;3.77;76.41
71149;BME280;59072;42.144;25.200;2023-03-15T02:07:43;99195.88;;;4.08;75.74
71149;BME280;59072;42.144;25.200;2023-03-15T02:10:17;99195.50;;;4.11;75.22
71149;BME280;59072;42.144;25.200;2023-03-15T02:12:47;99191.00;;;4.05;75.62
71149;BME280;59072;42.144;25.200;2023-03-15T02:15:16;99192.44;;;4.00;75.64
71149;BME280;59072;42.144;25.200;2023-03-15T02:17:46;99175.38;;;3.96;75.96
71149;BME280;59072;42.144;25.200;2023-03-15T02:22:55;99182.59;;;3.81;76.53
71149;BME280;59072;42.144;25.200;2023-03-15T02:25:45;99179.53;;;3.84;77.15
71149;BME280;59072;42.144;25.200;2023-03-15T02:28:15;99177.75;;;3.85;76.78
71149;BME280;59072;42.144;25.200;2023-03-15T02:30:41;99165.13;;;3.80;76.58
71149;BME280;59072;42.144;25.200;2023-03-15T02:33:33;99179.69;;;3.69;77.20
71149;BME280;59072;42.144;25.200;2023-03-15T02:36:07;99170.22;;;3.88;75.74
71149;BME280;59072;42.144;25.200;2023-03-15T02:38:33;99176.88;;;3.71;77.46
71149;BME280;59072;42.144;25.200;2023-03-15T02:40:58;99165.00;;;3.53;77.76
71149;BME280;59072;42.144;25.200;2023-03-15T02:43:27;99166.69;;;3.68;77.35
71149;BME280;59072;42.144;25.200;2023-03-15T02:45:54;99162.44;;;3.67;77.60
71149;BME280;59072;42.144;25.200;2023-03-15T02:48:20;99166.34;;;3.84;76.37
71149;BME280;59072;42.144;25.200;2023-03-15T02:50:45;99158.59;;;3.69;77.46
71149;BME280;59072;42.144;25.200;2023-03-15T02:53:11;99149.41;;;3.52;77.39
71149;BME280;59072;42.144;25.200;2023-03-15T02:55:37;99165.78;;;3.47;78.59
71149;BME280;59072;42.144;25.200;2023-03-15T02:58:02;99163.78;;;3.49;78.35
71149;BME280;59072;42.144;25.200;2023-03-15T03:00:28;99157.66;;;3.42;78.87
71149;BME280;59072;42.144;25.200;2023-03-15T03:02:54;99163.94;;;3.41;78.82
71149;BME280;59072;42.144;25.200;2023-03-15T03:05:19;99167.03;;;3.51;78.50
71149;BME280;59072;42.144;25.200;2023-03-15T03:07:45;99168.66;;;3.52;78.63
71149;BME280;59072;42.144;25.200;2023-03-15T03:10:13;99171.94;;;3.61;78.29
71149;BME280;59072;42.144;25.200;2023-03-15T03:12:39;99161.22;;;3.28;78.37
71149;BME280;59072;42.144;25.200;2023-03-15T03:15:05;99142.38;;;2.96;80.16
71149;BME280;59072;42.144;25.200;2023-03-15T03:17:31;99147.44;;;3.26;78.90
71149;BME280;59072;42.144;25.200;2023-03-15T03:20:05;99144.25;;;3.37;78.13
71149;BME280;59072;42.144;25.200;2023-03-15T03:22:35;99151.13;;;3.31;78.54
71149;BME280;59072;42.144;25.200;2023-03-15T03:25:01;99148.13;;;3.41;78.61
71149;BME280;59072;42.144;25.200;2023-03-15T03:27:28;99157.03;;;3.40;78.51
71149;BME280;59072;42.144;25.200;2023-03-15T03:29:53;99146.25;;;3.35;78.10
71149;BME280;59072;42.144;25.200;2023-03-15T03:32:19;99159.75;;;3.53;77.58
71149;BME280;59072;42.144;25.200;2023-03-15T03:34:45;99149.91;;;3.34;77.56
71149;BME280;59072;42.144;25.200;2023-03-15T03:37:18;99147.00;;;3.22;78.72
71149;BME280;59072;42.144;25.200;2023-03-15T03:39:44;99143.72;;;3.13;78.97
71149;BME280;59072;42.144;25.200;2023-03-15T03:42:10;99150.03;;;3.19;78.24
71149;BME280;59072;42.144;25.200;2023-03-15T03:44:36;99147.44;;;3.26;78.25
71149;BME280;59072;42.144;25.200;2023-03-15T03:47:01;99134.00;;;3.14;78.57
71149;BME280;59072;42.144;25.200;2023-03-15T03:49:27;99140.56;;;2.96;78.88
71149;BME280;59072;42.144;25.200;2023-03-15T03:51:52;99138.59;;;2.77;79.31
71149;BME280;59072;42.144;25.200;2023-03-15T03:54:18;99155.78;;;3.01;78.89
71149;BME280;59072;42.144;25.200;2023-03-15T03:56:46;99151.41;;;2.80;79.19
71149;BME280;59072;42.144;25.200;2023-03-15T03:59:12;99148.19;;;2.63;80.61
71149;BME280;59072;42.144;25.200;2023-03-15T04:01:37;99139.63;;;2.54;81.32
71149;BME280;59072;42.144;25.200;2023-03-15T04:04:03;99127.41;;;2.68;81.40
71149;BME280;59072;42.144;25.200;2023-03-15T04:06:28;99136.72;;;2.49;83.47
71149;BME280;59072;42.144;25.200;2023-03-15T04:08:54;99123.28;;;2.37;84.89
71149;BME280;59072;42.144;25.200;2023-03-15T04:11:19;99120.91;;;2.42;85.67
71149;BME280;59072;42.144;25.200;2023-03-15T04:13:45;99119.50;;;2.47;85.94
71149;BME280;59072;42.144;25.200;2023-03-15T04:16:10;99108.66;;;2.56;84.68
71149;BME280;59072;42.144;25.200;2023-03-15T04:18:36;99121.78;;;2.50;84.75
71149;BME280;59072;42.144;25.200;2023-03-15T04:21:04;99110.19;;;2.44;84.89
71149;BME280;59072;42.144;25.200;2023-03-15T04:23:35;99106.97;;;2.70;83.71
71149;BME280;59072;42.144;25.200;2023-03-15T04:26:01;99129.34;;;2.88;83.10
71149;BME280;59072;42.144;25.200;2023-03-15T04:28:27;99126.66;;;2.53;84.59
71149;BME280;59072;42.144;25.200;2023-03-15T04:30:54;99129.06;;;2.48;84.38
71149;BME280;59072;42.144;25.200;2023-03-15T04:33:23;99111.94;;;2.37;84.56
71149;BME280;59072;42.144;25.200;2023-03-15T04:35:49;99111.31;;;2.35;85.21
71149;BME280;59072;42.144;25.200;2023-03-15T04:38:16;99116.53;;;2.50;84.87
71149;BME280;59072;42.144;25.200;2023-03-15T04:40:42;99125.75;;;2.67;83.48
71149;BME280;59072;42.144;25.200;2023-03-15T04:43:08;99120.88;;;2.64;83.53
71149;BME280;59072;42.144;25.200;2023-03-15T04:45:33;99129.84;;;2.70;83.44
71149;BME280;59072;42.144;25.200;2023-03-15T04:48:00;99127.44;;;2.75;82.65
71149;BME280;59072;42.144;25.200;2023-03-15T04:50:26;99109.13;;;2.38;84.04
71149;BME280;59072;42.144;25.200;2023-03-15T04:52:52;99148.00;;;2.65;84.06
71149;BME280;59072;42.144;25.200;2023-03-15T04:55:18;99144.31;;;2.59;83.88
71149;BME280;59072;42.144;25.200;2023-03-15T04:57:43;99123.44;;;2.29;84.64
71149;BME280;59072;42.144;25.200;2023-03-15T05:00:09;99147.84;;;2.66;84.55
71149;BME280;59072;42.144;25.200;2023-03-15T05:02:37;99134.53;;;2.74;83.45
71149;BME280;59072;42.144;25.200;2023-03-15T05:05:06;99138.28;;;2.65;84.08
71149;BME280;59072;42.144;25.200;2023-03-15T05:07:35;99111.47;;;2.76;82.86
71149;BME280;59072;42.144;25.200;2023-03-15T05:10:00;99116.66;;;2.98;82.12
71149;BME280;59072;42.144;25.200;2023-03-15T05:12:27;99119.34;;;3.05;81.45
71149;BME280;59072;42.144;25.200;2023-03-15T05:14:52;99116.97;;;3.16;80.81
71149;BME280;59072;42.144;25.200;2023-03-15T05:17:18;99115.72;;;3.12;81.21
71149;BME280;59072;42.144;25.200;2023-03-15T05:19:43;99116.50;;;3.06;81.36
71149;BME280;59072;42.144;25.200;2023-03-15T05:22:10;99119.44;;;3.25;81.17
71149;BME280;59072;42.144;25.200;2023-03-15T05:24:36;99119.25;;;2.91;82.21
71149;BME280;59072;42.144;25.200;2023-03-15T05:27:01;99102.59;;;2.84;82.96
71149;BME280;59072;42.144;25.200;2023-03-15T05:29:28;99107.97;;;3.04;82.72
71149;BME280;59072;42.144;25.200;2023-03-15T05:31:54;99105.75;;;3.01;82.01
71149;BME280;59072;42.144;25.200;2023-03-15T05:34:19;99128.06;;;3.05;82.12
71149;BME280;59072;42.144;25.200;2023-03-15T05:36:48;99131.94;;;3.09;83.21
71149;BME280;59072;42.144;25.200;2023-03-15T05:39:15;99128.53;;;3.15;82.16
71149;BME280;59072;42.144;25.200;2023-03-15T05:41:41;99112.41;;;2.97;82.50
71149;BME280;59072;42.144;25.200;2023-03-15T05:44:06;99126.28;;;3.12;82.57
71149;BME280;59072;42.144;25.200;2023-03-15T05:46:32;99137.97;;;3.03;83.55
71149;BME280;59072;42.144;25.200;2023-03-15T05:48:57;99110.44;;;3.06;83.17
71149;BME280;59072;42.144;25.200;2023-03-15T05:51:22;99133.25;;;3.27;82.77
71149;BME280;59072;42.144;25.200;2023-03-15T05:53:48;99107.50;;;2.94;83.21
71149;BME280;59072;42.144;25.200;2023-03-15T05:56:13;99136.44;;;3.15;83.61
71149;BME280;59072;42.144;25.200;2023-03-15T05:58:39;99131.28;;;3.35;83.29
71149;BME280;59072;42.144;25.200;2023-03-15T06:01:04;99139.47;;;3.54;81.71
71149;BME280;59072;42.144;25.200;2023-03-15T06:03:30;99124.50;;;3.61;81.29
71149;BME280;59072;42.144;25.200;2023-03-15T06:05:57;99126.41;;;3.39;82.15
71149;BME280;59072;42.144;25.200;2023-03-15T06:08:23;99139.34;;;3.75;82.52
71149;BME280;59072;42.144;25.200;2023-03-15T06:10:48;99141.19;;;3.75;81.49
71149;BME280;59072;42.144;25.200;2023-03-15T06:13:14;99136.56;;;3.90;80.91
71149;BME280;59072;42.144;25.200;2023-03-15T06:15:39;99133.53;;;3.87;81.48
71149;BME280;59072;42.144;25.200;2023-03-15T06:18:05;99143.09;;;3.94;81.04
71149;BME280;59072;42.144;25.200;2023-03-15T06:20:30;99130.72;;;3.95;81.45
71149;BME280;59072;42.144;25.200;2023-03-15T06:22:56;99117.38;;;4.36;80.06
71149;BME280;59072;42.144;25.200;2023-03-15T06:25:22;99119.00;;;4.51;79.30
71149;BME280;59072;42.144;25.200;2023-03-15T06:27:48;99106.44;;;4.39;79.42
71149;BME280;59072;42.144;25.200;2023-03-15T06:30:14;99112.94;;;4.43;79.14
71149;BME280;59072;42.144;25.200;2023-03-15T06:32:39;99115.56;;;4.30;80.00
71149;BME280;59072;42.144;25.200;2023-03-15T06:35:05;99112.09;;;4.43;80.00
71149;BME280;59072;42.144;25.200;2023-03-15T06:37:30;99102.75;;;4.40;80.28
71149;BME280;59072;42.144;25.200;2023-03-15T06:39:56;99118.00;;;4.45;80.08
71149;BME280;59072;42.144;25.200;2023-03-15T06:42:22;99122.25;;;4.19;79.93
71149;BME280;59072;42.144;25.200;2023-03-15T06:44:47;99111.72;;;4.39;78.94
71149;BME280;59072;42.144;25.200;2023-03-15T06:47:13;99105.44;;;4.54;78.21
71149;BME280;59072;42.144;25.200;2023-03-15T06:49:38;99116.56;;;4.69;77.25
71149;BME280;59072;42.144;25.200;2023-03-15T06:52:05;99121.84;;;4.76;77.32
71149;BME280;59072;42.144;25.200;2023-03-15T06:54:31;99104.78;;;4.72;77.72
71149;BME280;59072;42.144;25.200;2023-03-15T06:56:57;99116.38;;;4.77;77.13
71149;BME280;59072;42.144;25.200;2023-03-15T06:59:22;99122.06;;;4.88;76.24
71149;BME280;59072;42.144;25.200;2023-03-15T07:01:48;99115.72;;;5.02;76.65
71149;BME280;59072;42.144;25.200;2023-03-15T07:04:13;99111.88;;;5.11;76.48
71149;BME280;59072;42.144;25.200;2023-03-15T07:06:39;99129.47;;;5.44;74.29
71149;BME280;59072;42.144;25.200;2023-03-15T07:09:04;99122.56;;;5.36;73.87
71149;BME280;59072;42.144;25.200;2023-03-15T07:11:30;99119.44;;;5.59;74.77
71149;BME280;59072;42.144;25.200;2023-03-15T07:13:56;99109.13;;;5.90;73.59
71149;BME280;59072;42.144;25.200;2023-03-15T07:16:23;99102.97;;;6.34;70.70
71149;BME280;59072;42.144;25.200;2023-03-15T07:18:48;99113.72;;;6.39;70.71
71149;BME280;59072;42.144;25.200;2023-03-15T07:21:14;99120.41;;;6.49;70.96
71149;BME280;59072;42.144;25.200;2023-03-15T07:23:39;99118.47;;;6.31;69.98
71149;BME280;59072;42.144;25.200;2023-03-15T07:26:05;99131.31;;;6.59;69.19
71149;BME280;59072;42.144;25.200;2023-03-15T07:28:30;99134.75;;;6.66;69.74
71149;BME280;59072;42.144;25.200;2023-03-15T07:30:58;99120.97;;;6.82;69.64
71149;BME280;59072;42.144;25.200;2023-03-15T07:33:25;99126.75;;;7.16;68.67
71149;BME280;59072;42.144;25.200;2023-03-15T07:35:51;99114.34;;;6.92;68.36
71149;BME280;59072;42.144;25.200;2023-03-15T07:38:22;99124.19;;;6.84;69.34
71149;BME280;59072;42.144;25.200;2023-03-15T07:40:48;99131.00;;;6.99;67.47
71149;BME280;59072;42.144;25.200;2023-03-15T07:43:13;99100.06;;;6.93;67.85
71149;BME280;59072;42.144;25.200;2023-03-15T07:45:38;99104.50;;;6.99;66.95
71149;BME280;59072;42.144;25.200;2023-03-15T07:48:04;99127.91;;;7.02;68.23
71149;BME280;59072;42.144;25.200;2023-03-15T07:50:30;99113.84;;;7.01;67.76
71149;BME280;59072;42.144;25.200;2023-03-15T07:52:56;99100.88;;;7.12;66.10
71149;BME280;59072;42.144;25.200;2023-03-15T07:55:22;99104.94;;;7.33;66.07
71149;BME280;59072;42.144;25.200;2023-03-15T07:57:48;99095.81;;;7.10;66.31
71149;BME280;59072;42.144;25.200;2023-03-15T08:00:13;99086.06;;;7.41;65.88
71149;BME280;59072;42.144;25.200;2023-03-15T08:02:39;99094.47;;;7.56;64.67
71149;BME280;59072;42.144;25.200;2023-03-15T08:05:05;99080.34;;;7.74;65.00
71149;BME280;59072;42.144;25.200;2023-03-15T08:07:31;99079.19;;;8.00;63.05
71149;BME280;59072;42.144;25.200;2023-03-15T08:09:56;99093.75;;;8.40;62.12
71149;BME280;59072;42.144;25.200;2023-03-15T08:12:25;99092.06;;;8.69;62.39
71149;BME280;59072;42.144;25.200;2023-03-15T08:14:51;99084.91;;;8.81;60.22
71149;BME280;59072;42.144;25.200;2023-03-15T08:17:17;99074.97;;;8.65;61.17
71149;BME280;59072;42.144;25.200;2023-03-15T08:19:43;99076.22;;;8.62;62.22
71149;BME280;59072;42.144;25.200;2023-03-15T08:22:09;99075.53;;;8.67;61.92
71149;BME280;59072;42.144;25.200;2023-03-15T08:24:35;99078.19;;;8.91;60.09
71149;BME280;59072;42.144;25.200;2023-03-15T08:27:01;99069.94;;;9.28;60.05
71149;BME280;59072;42.144;25.200;2023-03-15T08:29:27;99075.06;;;8.94;59.16
71149;BME280;59072;42.144;25.200;2023-03-15T08:31:53;99061.31;;;8.85;60.15
71149;BME280;59072;42.144;25.200;2023-03-15T08:34:18;99059.31;;;9.16;59.90
71149;BME280;59072;42.144;25.200;2023-03-15T08:36:47;99058.03;;;9.18;58.73
71149;BME280;59072;42.144;25.200;2023-03-15T08:39:13;99057.91;;;9.25;59.23
71149;BME280;59072;42.144;25.200;2023-03-15T08:41:39;99051.53;;;9.95;57.23
71149;BME280;59072;42.144;25.200;2023-03-15T08:44:05;99034.78;;;10.12;57.07
71149;BME280;59072;42.144;25.200;2023-03-15T08:46:31;99022.09;;;9.56;56.47
71149;BME280;59072;42.144;25.200;2023-03-15T08:48:57;99027.81;;;9.65;57.82
71149;BME280;59072;42.144;25.200;2023-03-15T08:51:23;99026.53;;;9.68;57.85
71149;BME280;59072;42.144;25.200;2023-03-15T08:53:49;99024.47;;;9.86;55.96
71149;BME280;59072;42.144;25.200;2023-03-15T08:56:16;99014.44;;;10.39;55.98
71149;BME280;59072;42.144;25.200;2023-03-15T08:58:41;99008.44;;;10.66;54.64
71149;BME280;59072;42.144;25.200;2023-03-15T09:01:06;98984.56;;;10.37;55.20
71149;BME280;59072;42.144;25.200;2023-03-15T09:03:32;98993.75;;;10.30;56.09
71149;BME280;59072;42.144;25.200;2023-03-15T09:05:58;98999.22;;;10.23;54.63
71149;BME280;59072;42.144;25.200;2023-03-15T09:08:24;98991.19;;;10.18;56.12
71149;BME280;59072;42.144;25.200;2023-03-15T09:10:57;98996.19;;;10.31;55.61
71149;BME280;59072;42.144;25.200;2023-03-15T09:13:23;98996.66;;;10.62;55.49
71149;BME280;59072;42.144;25.200;2023-03-15T09:15:52;98990.78;;;10.43;55.97
71149;BME280;59072;42.144;25.200;2023-03-15T09:18:19;98978.88;;;10.17;55.62
71149;BME280;59072;42.144;25.200;2023-03-15T09:20:45;99001.13;;;10.39;56.18
71149;BME280;59072;42.144;25.200;2023-03-15T09:23:11;98990.44;;;10.39;56.17
71149;BME280;59072;42.144;25.200;2023-03-15T09:25:36;98999.72;;;10.93;55.31
71149;BME280;59072;42.144;25.200;2023-03-15T09:28:03;98991.72;;;10.93;54.32
71149;BME280;59072;42.144;25.200;2023-03-15T09:30:29;98991.84;;;11.03;55.78
71149;BME280;59072;42.144;25.200;2023-03-15T09:32:55;98992.72;;;11.31;52.61
71149;BME280;59072;42.144;25.200;2023-03-15T09:35:20;98995.41;;;11.09;53.14
71149;BME280;59072;42.144;25.200;2023-03-15T09:37:47;98978.03;;;11.06;53.55
71149;BME280;59072;42.144;25.200;2023-03-15T09:46:23;98988.91;;;11.76;51.65
71149;BME280;59072;42.144;25.200;2023-03-15T09:48:51;98988.38;;;11.79;51.80
71149;BME280;59072;42.144;25.200;2023-03-15T09:51:33;98974.00;;;12.44;49.67
71149;BME280;59072;42.144;25.200;2023-03-15T09:54:06;98972.03;;;11.97;50.21
71149;BME280;59072;42.144;25.200;2023-03-15T09:56:57;98978.00;;;12.47;50.01
71149;BME280;59072;42.144;25.200;2023-03-15T09:59:29;98967.97;;;12.22;48.34
71149;BME280;59072;42.144;25.200;2023-03-15T10:01:58;98954.91;;;12.73;48.08
71149;BME280;59072;42.144;25.200;2023-03-15T10:06:58;98953.00;;;13.37;46.98
71149;BME280;59072;42.144;25.200;2023-03-15T10:09:29;98965.69;;;13.77;45.41
71149;BME280;59072;42.144;25.200;2023-03-15T10:12:07;98966.19;;;13.59;44.40
71149;BME280;59072;42.144;25.200;2023-03-15T10:17:03;98950.59;;;14.48;42.75
71149;BME280;59072;42.144;25.200;2023-03-15T10:30:02;98940.22;;;14.00;40.45
71149;BME280;59072;42.144;25.200;2023-03-15T10:32:40;98927.31;;;14.18;41.23
71149;BME280;59072;42.144;25.200;2023-03-15T10:35:13;98941.22;;;14.56;40.23
71149;BME280;59072;42.144;25.200;2023-03-15T10:37:39;98936.94;;;14.60;39.74
71149;BME280;59072;42.144;25.200;2023-03-15T10:40:08;98928.75;;;14.96;41.02
71149;BME280;59072;42.144;25.200;2023-03-15T10:42:44;98915.81;;;15.03;40.40
71149;BME280;59072;42.144;25.200;2023-03-15T10:45:20;98930.22;;;15.22;38.47
71149;BME280;59072;42.144;25.200;2023-03-15T10:47:47;98928.53;;;15.37;37.81
71149;BME280;59072;42.144;25.200;2023-03-15T10:50:30;98912.53;;;14.41;39.55
71149;BME280;59072;42.144;25.200;2023-03-15T10:52:58;98920.88;;;14.29;41.79
71149;BME280;59072;42.144;25.200;2023-03-15T10:55:35;98919.47;;;14.62;40.10
71149;BME280;59072;42.144;25.200;2023-03-15T11:00:51;98925.72;;;15.07;38.15
71149;BME280;59072;42.144;25.200;2023-03-15T11:03:24;98915.88;;;15.82;36.82
71149;BME280;59072;42.144;25.200;2023-03-15T11:05:56;98908.03;;;16.44;37.41
71149;BME280;59072;42.144;25.200;2023-03-15T11:08:44;98902.16;;;16.90;36.82
71149;BME280;59072;42.144;25.200;2023-03-15T11:11:09;98906.84;;;16.55;37.43
71149;BME280;59072;42.144;25.200;2023-03-15T11:13:37;98897.31;;;16.63;37.84
71149;BME280;59072;42.144;25.200;2023-03-15T11:21:22;98895.00;;;16.75;37.28
71149;BME280;59072;42.144;25.200;2023-03-15T11:23:50;98893.59;;;16.11;37.80
71149;BME280;59072;42.144;25.200;2023-03-15T11:26:21;98888.72;;;15.83;37.86
71149;BME280;59072;42.144;25.200;2023-03-15T11:28:53;98889.03;;;15.77;37.63
71149;BME280;59072;42.144;25.200;2023-03-15T11:31:21;98883.38;;;16.07;36.80
71149;BME280;59072;42.144;25.200;2023-03-15T11:33:55;98886.03;;;16.13;38.37
71149;BME280;59072;42.144;25.200;2023-03-15T11:36:25;98879.22;;;15.91;37.07
71149;BME280;59072;42.144;25.200;2023-03-15T11:38:53;98867.13;;;16.18;38.33
71149;BME280;59072;42.144;25.200;2023-03-15T11:41:38;98857.78;;;16.39;37.34
71149;BME280;59072;42.144;25.200;2023-03-15T11:46:48;98851.56;;;16.63;36.59
71149;BME280;59072;42.144;25.200;2023-03-15T11:51:40;98850.16;;;15.93;36.98
71149;BME280;59072;42.144;25.200;2023-03-15T11:54:13;98848.00;;;15.95;38.02
71149;BME280;59072;42.144;25.200;2023-03-15T11:59:15;98843.00;;;16.13;36.78
71149;BME280;59072;42.144;25.200;2023-03-15T12:01:45;98821.22;;;15.85;38.14
71149;BME280;59072;42.144;25.200;2023-03-15T12:06:51;98807.97;;;15.30;38.48
71149;BME280;59072;42.144;25.200;2023-03-15T12:12:02;98815.03;;;15.55;37.67
71149;BME280;59072;42.144;25.200;2023-03-15T12:22:39;98806.94;;;14.86;38.77
71149;BME280;59072;42.144;25.200;2023-03-15T12:25:15;98819.78;;;15.29;40.07
71149;BME280;59072;42.144;25.200;2023-03-15T12:27:52;98827.09;;;15.23;40.17
71149;BME280;59072;42.144;25.200;2023-03-15T12:30:32;98827.34;;;14.88;40.79
71149;BME280;59072;42.144;25.200;2023-03-15T12:33:00;98825.28;;;14.64;41.54
71149;BME280;59072;42.144;25.200;2023-03-15T12:35:32;98821.88;;;14.38;41.62
71149;BME280;59072;42.144;25.200;2023-03-15T12:38:02;98829.00;;;13.98;41.88
71149;BME280;59072;42.144;25.200;2023-03-15T12:40:37;98824.44;;;13.83;41.61
71149;BME280;59072;42.144;25.200;2023-03-15T12:43:04;98825.53;;;13.77;41.68
71149;BME280;59072;42.144;25.200;2023-03-15T12:45:35;98817.47;;;13.77;40.86
71149;BME280;59072;42.144;25.200;2023-03-15T12:53:20;98821.53;;;13.64;40.17
71149;BME280;59072;42.144;25.200;2023-03-15T12:55:48;98821.97;;;14.12;40.79
71149;BME280;59072;42.144;25.200;2023-03-15T12:58:16;98817.41;;;14.07;41.35
71149;BME280;59072;42.144;25.200;2023-03-15T13:00:43;98807.22;;;14.15;40.60
71149;BME280;59072;42.144;25.200;2023-03-15T13:03:14;98811.88;;;14.64;40.07
71149;BME280;59072;42.144;25.200;2023-03-15T13:08:15;98819.41;;;14.62;40.39
71149;BME280;59072;42.144;25.200;2023-03-15T13:15:45;98822.75;;;14.18;40.73
71149;BME280;59072;42.144;25.200;2023-03-15T13:18:17;98807.16;;;14.35;41.57
71149;BME280;59072;42.144;25.200;2023-03-15T13:21:12;98815.56;;;14.78;39.31
71149;BME280;59072;42.144;25.200;2023-03-15T13:23:42;98812.84;;;14.13;40.88
71149;BME280;59072;42.144;25.200;2023-03-15T13:28:47;98797.59;;;14.03;42.84
71149;BME280;59072;42.144;25.200;2023-03-15T13:31:20;98793.31;;;13.97;42.87
71149;BME280;59072;42.144;25.200;2023-03-15T13:33:47;98777.50;;;14.01;42.01
71149;BME280;59072;42.144;25.200;2023-03-15T13:36:15;98804.94;;;13.67;42.85
71149;BME280;59072;42.144;25.200;2023-03-15T13:43:41;98796.63;;;13.53;44.33
71149;BME280;59072;42.144;25.200;2023-03-15T13:46:07;98795.00;;;13.16;43.56
71149;BME280;59072;42.144;25.200;2023-03-15T13:48:40;98798.78;;;13.31;43.95
71149;BME280;59072;42.144;25.200;2023-03-15T13:54:03;98807.88;;;13.50;44.09
71149;BME280;59072;42.144;25.200;2023-03-15T13:56:32;98815.34;;;13.58;43.27
71149;BME280;59072;42.144;25.200;2023-03-15T13:58:59;98806.28;;;13.39;42.91
71149;BME280;59072;42.144;25.200;2023-03-15T14:01:27;98800.91;;;13.34;42.52
71149;BME280;59072;42.144;25.200;2023-03-15T14:04:04;98801.97;;;13.38;43.29
71149;BME280;59072;42.144;25.200;2023-03-15T14:06:30;98806.78;;;13.36;43.58
71149;BME280;59072;42.144;25.200;2023-03-15T14:09:05;98799.28;;;13.58;42.94
71149;BME280;59072;42.144;25.200;2023-03-15T14:11:36;98793.13;;;13.27;44.43
71149;BME280;59072;42.144;25.200;2023-03-15T14:14:24;98814.78;;;13.10;43.06
71149;BME280;59072;42.144;25.200;2023-03-15T14:16:50;98797.69;;;13.32;43.36
71149;BME280;59072;42.144;25.200;2023-03-15T14:19:21;98796.34;;;13.24;43.19
71149;BME280;59072;42.144;25.200;2023-03-15T14:21:53;98800.91;;;13.39;43.55